sensor_id;sensor_type;location;lat;lon;timestamp;temperature;humidity
27671;DHT22;15077;49.704;9.908;2022-08-03T00:00:15;25.00;38.70
27671;DHT22;15077;49.704;9.908;2022-08-03T00:02:41;24.90;38.80
27671;DHT22;15077;49.704;9.908;2022-08-03T00:05:07;24.90;38.80
27671;DHT22;15077;49.704;9.908;2022-08-03T00:07:33;24.80;38.80
27671;DHT22;15077;49.704;9.908;2022-08-03T00:09:59;24.70;38.90
27671;DHT22;15077;49.704;9.908;2022-08-03T00:12:25;24.70;38.90
27671;DHT22;15077;49.704;9.908;2022-08-03T00:14:50;24.70;38.90
27671;DHT22;15077;49.704;9.908;2022-08-03T00:17:16;24.60;39.10
27671;DHT22;15077;49.704;9.908;2022-08-03T00:19:42;24.60;39.10
27671;DHT22;15077;49.704;9.908;2022-08-03T00:22:07;24.50;39.20
27671;DHT22;15077;49.704;9.908;2022-08-03T00:24:33;24.50;39.20
27671;DHT22;15077;49.704;9.908;2022-08-03T00:27:00;24.40;39.30
27671;DHT22;15077;49.704;9.908;2022-08-03T00:29:26;24.40;39.40
27671;DHT22;15077;49.704;9.908;2022-08-03T00:31:52;24.40;39.40
27671;DHT22;15077;49.704;9.908;2022-08-03T00:34:18;24.30;39.60
27671;DHT22;15077;49.704;9.908;2022-08-03T00:36:44;24.30;39.50
27671;DHT22;15077;49.704;9.908;2022-08-03T00:39:10;24.20;39.60
27671;DHT22;15077;49.704;9.908;2022-08-03T00:41:35;24.20;39.60
27671;DHT22;15077;49.704;9.908;2022-08-03T00:44:01;24.20;39.80
27671;DHT22;15077;49.704;9.908;2022-08-03T00:46:27;24.10;39.90
27671;DHT22;15077;49.704;9.908;2022-08-03T00:48:53;24.10;40.00
27671;DHT22;15077;49.704;9.908;2022-08-03T00:51:22;24.10;40.10
27671;DHT22;15077;49.704;9.908;2022-08-03T00:53:50;24.00;40.30
27671;DHT22;15077;49.704;9.908;2022-08-03T00:56:16;24.00;40.30
27671;DHT22;15077;49.704;9.908;2022-08-03T00:58:46;24.00;40.30
27671;DHT22;15077;49.704;9.908;2022-08-03T01:01:12;23.90;40.40
27671;DHT22;15077;49.704;9.908;2022-08-03T01:03:39;23.90;40.40
27671;DHT22;15077;49.704;9.908;2022-08-03T01:06:16;23.80;40.40
27671;DHT22;15077;49.704;9.908;2022-08-03T01:09:18;23.80;40.70
27671;DHT22;15077;49.704;9.908;2022-08-03T01:12:17;23.80;40.60
27671;DHT22;15077;49.704;9.908;2022-08-03T01:15:42;23.70;40.60
27671;DHT22;15077;49.704;9.908;2022-08-03T01:18:35;23.70;40.70
27671;DHT22;15077;49.704;9.908;2022-08-03T01:21:11;23.70;40.90
27671;DHT22;15077;49.704;9.908;2022-08-03T01:30:34;23.50;41.00
27671;DHT22;15077;49.704;9.908;2022-08-03T01:33:05;23.50;41.00
27671;DHT22;15077;49.704;9.908;2022-08-03T01:36:04;23.40;41.00
27671;DHT22;15077;49.704;9.908;2022-08-03T01:38:36;23.40;41.20
27671;DHT22;15077;49.704;9.908;2022-08-03T01:41:24;23.40;41.30
27671;DHT22;15077;49.704;9.908;2022-08-03T01:43:57;23.30;41.40
27671;DHT22;15077;49.704;9.908;2022-08-03T01:46:25;23.30;41.40
27671;DHT22;15077;49.704;9.908;2022-08-03T01:48:52;23.30;41.40
27671;DHT22;15077;49.704;9.908;2022-08-03T01:51:20;23.20;41.50
27671;DHT22;15077;49.704;9.908;2022-08-03T01:53:48;23.20;41.60
27671;DHT22;15077;49.704;9.908;2022-08-03T01:56:17;23.20;41.50
27671;DHT22;15077;49.704;9.908;2022-08-03T01:58:45;23.10;41.50
27671;DHT22;15077;49.704;9.908;2022-08-03T02:01:15;23.10;41.60
27671;DHT22;15077;49.704;9.908;2022-08-03T02:03:42;23.10;41.60
27671;DHT22;15077;49.704;9.908;2022-08-03T02:06:11;23.00;41.60
27671;DHT22;15077;49.704;9.908;2022-08-03T02:08:39;23.00;41.70
27671;DHT22;15077;49.704;9.908;2022-08-03T02:11:07;23.00;41.90
27671;DHT22;15077;49.704;9.908;2022-08-03T02:13:34;23.00;41.90
27671;DHT22;15077;49.704;9.908;2022-08-03T02:16:02;22.90;41.90
27671;DHT22;15077;49.704;9.908;2022-08-03T02:18:31;22.90;42.50
27671;DHT22;15077;49.704;9.908;2022-08-03T02:21:00;22.90;42.00
27671;DHT22;15077;49.704;9.908;2022-08-03T02:23:28;22.90;42.20
27671;DHT22;15077;49.704;9.908;2022-08-03T02:26:01;22.80;42.10
27671;DHT22;15077;49.704;9.908;2022-08-03T02:28:32;22.80;42.30
27671;DHT22;15077;49.704;9.908;2022-08-03T02:31:04;22.80;42.20
27671;DHT22;15077;49.704;9.908;2022-08-03T02:33:38;22.70;42.20
27671;DHT22;15077;49.704;9.908;2022-08-03T02:36:08;22.70;42.20
27671;DHT22;15077;49.704;9.908;2022-08-03T02:38:40;22.70;42.20
27671;DHT22;15077;49.704;9.908;2022-08-03T02:41:14;22.60;42.30
27671;DHT22;15077;49.704;9.908;2022-08-03T02:43:45;22.60;42.40
27671;DHT22;15077;49.704;9.908;2022-08-03T02:46:17;22.60;42.40
27671;DHT22;15077;49.704;9.908;2022-08-03T02:48:45;22.50;42.50
27671;DHT22;15077;49.704;9.908;2022-08-03T02:51:13;22.50;42.50
27671;DHT22;15077;49.704;9.908;2022-08-03T02:53:44;22.40;42.50
27671;DHT22;15077;49.704;9.908;2022-08-03T02:56:11;22.40;42.70
27671;DHT22;15077;49.704;9.908;2022-08-03T02:58:39;22.40;42.70
27671;DHT22;15077;49.704;9.908;2022-08-03T03:01:08;22.30;42.70
27671;DHT22;15077;49.704;9.908;2022-08-03T03:03:36;22.30;42.80
27671;DHT22;15077;49.704;9.908;2022-08-03T03:06:05;22.30;42.90
27671;DHT22;15077;49.704;9.908;2022-08-03T03:08:32;22.20;42.90
27671;DHT22;15077;49.704;9.908;2022-08-03T03:10:59;22.20;43.10
27671;DHT22;15077;49.704;9.908;2022-08-03T03:13:27;22.20;43.20
27671;DHT22;15077;49.704;9.908;2022-08-03T03:15:57;22.10;43.20
27671;DHT22;15077;49.704;9.908;2022-08-03T03:18:28;22.10;43.30
27671;DHT22;15077;49.704;9.908;2022-08-03T03:20:57;22.10;43.30
27671;DHT22;15077;49.704;9.908;2022-08-03T03:23:25;22.10;43.40
27671;DHT22;15077;49.704;9.908;2022-08-03T03:25:54;22.10;43.40
27671;DHT22;15077;49.704;9.908;2022-08-03T03:28:22;22.10;43.60
27671;DHT22;15077;49.704;9.908;2022-08-03T03:30:48;22.00;43.60
27671;DHT22;15077;49.704;9.908;2022-08-03T03:33:14;22.00;43.70
27671;DHT22;15077;49.704;9.908;2022-08-03T03:35:41;22.00;43.70
27671;DHT22;15077;49.704;9.908;2022-08-03T03:38:09;22.00;43.80
27671;DHT22;15077;49.704;9.908;2022-08-03T03:40:35;21.90;43.70
27671;DHT22;15077;49.704;9.908;2022-08-03T03:43:06;21.90;43.90
27671;DHT22;15077;49.704;9.908;2022-08-03T03:45:34;21.90;44.00
27671;DHT22;15077;49.704;9.908;2022-08-03T03:48:02;21.90;43.90
27671;DHT22;15077;49.704;9.908;2022-08-03T03:50:31;21.80;43.90
27671;DHT22;15077;49.704;9.908;2022-08-03T03:52:59;21.80;44.00
27671;DHT22;15077;49.704;9.908;2022-08-03T03:55:25;21.80;44.00
27671;DHT22;15077;49.704;9.908;2022-08-03T03:57:51;21.80;44.00
27671;DHT22;15077;49.704;9.908;2022-08-03T04:00:17;21.70;44.10
27671;DHT22;15077;49.704;9.908;2022-08-03T04:02:44;21.70;44.10
27671;DHT22;15077;49.704;9.908;2022-08-03T04:05:14;21.70;44.20
27671;DHT22;15077;49.704;9.908;2022-08-03T04:08:13;21.70;44.40
27671;DHT22;15077;49.704;9.908;2022-08-03T04:11:13;21.70;44.50
27671;DHT22;15077;49.704;9.908;2022-08-03T04:13:49;21.70;44.50
27671;DHT22;15077;49.704;9.908;2022-08-03T04:16:22;21.70;44.20
27671;DHT22;15077;49.704;9.908;2022-08-03T04:18:56;21.70;44.30
27671;DHT22;15077;49.704;9.908;2022-08-03T04:21:27;21.60;44.40
27671;DHT22;15077;49.704;9.908;2022-08-03T04:24:01;21.60;44.50
27671;DHT22;15077;49.704;9.908;2022-08-03T04:26:31;21.60;44.60
27671;DHT22;15077;49.704;9.908;2022-08-03T04:29:00;21.60;44.70
27671;DHT22;15077;49.704;9.908;2022-08-03T04:31:29;21.50;44.60
27671;DHT22;15077;49.704;9.908;2022-08-03T04:33:55;21.50;44.80
27671;DHT22;15077;49.704;9.908;2022-08-03T04:36:24;21.50;44.90
27671;DHT22;15077;49.704;9.908;2022-08-03T04:39:12;21.50;45.00
27671;DHT22;15077;49.704;9.908;2022-08-03T04:41:42;21.50;45.10
27671;DHT22;15077;49.704;9.908;2022-08-03T04:44:10;21.50;45.10
27671;DHT22;15077;49.704;9.908;2022-08-03T04:46:38;21.50;45.10
27671;DHT22;15077;49.704;9.908;2022-08-03T04:49:05;21.50;45.20
27671;DHT22;15077;49.704;9.908;2022-08-03T04:51:32;21.40;45.20
27671;DHT22;15077;49.704;9.908;2022-08-03T04:54:03;21.40;45.20
27671;DHT22;15077;49.704;9.908;2022-08-03T04:56:29;21.40;45.30
27671;DHT22;15077;49.704;9.908;2022-08-03T04:58:55;21.40;45.40
27671;DHT22;15077;49.704;9.908;2022-08-03T05:01:20;21.40;45.40
27671;DHT22;15077;49.704;9.908;2022-08-03T05:03:47;21.40;45.60
27671;DHT22;15077;49.704;9.908;2022-08-03T05:06:13;21.40;45.60
27671;DHT22;15077;49.704;9.908;2022-08-03T05:08:38;21.40;45.60
27671;DHT22;15077;49.704;9.908;2022-08-03T05:11:04;21.40;45.60
27671;DHT22;15077;49.704;9.908;2022-08-03T05:13:30;21.40;45.60
27671;DHT22;15077;49.704;9.908;2022-08-03T05:15:56;21.50;45.70
27671;DHT22;15077;49.704;9.908;2022-08-03T05:18:22;21.50;45.80
27671;DHT22;15077;49.704;9.908;2022-08-03T05:20:48;21.50;46.10
27671;DHT22;15077;49.704;9.908;2022-08-03T05:23:14;21.50;46.20
27671;DHT22;15077;49.704;9.908;2022-08-03T05:25:40;21.50;46.00
27671;DHT22;15077;49.704;9.908;2022-08-03T05:28:06;21.60;46.10
27671;DHT22;15077;49.704;9.908;2022-08-03T05:30:31;21.60;46.30
27671;DHT22;15077;49.704;9.908;2022-08-03T05:32:57;21.60;46.30
27671;DHT22;15077;49.704;9.908;2022-08-03T05:35:24;21.60;46.40
27671;DHT22;15077;49.704;9.908;2022-08-03T05:37:50;21.70;46.50
27671;DHT22;15077;49.704;9.908;2022-08-03T05:40:16;21.70;46.40
27671;DHT22;15077;49.704;9.908;2022-08-03T05:42:42;21.70;46.30
27671;DHT22;15077;49.704;9.908;2022-08-03T05:45:08;21.70;46.60
27671;DHT22;15077;49.704;9.908;2022-08-03T05:47:43;21.80;47.10
27671;DHT22;15077;49.704;9.908;2022-08-03T05:50:13;21.80;47.30
27671;DHT22;15077;49.704;9.908;2022-08-03T05:52:40;21.90;47.80
27671;DHT22;15077;49.704;9.908;2022-08-03T05:55:08;21.90;47.80
27671;DHT22;15077;49.704;9.908;2022-08-03T05:57:35;22.00;47.60
27671;DHT22;15077;49.704;9.908;2022-08-03T06:00:04;22.00;47.50
27671;DHT22;15077;49.704;9.908;2022-08-03T06:02:32;22.10;47.30
27671;DHT22;15077;49.704;9.908;2022-08-03T06:04:58;22.10;47.50
27671;DHT22;15077;49.704;9.908;2022-08-03T06:07:23;22.20;47.50
27671;DHT22;15077;49.704;9.908;2022-08-03T06:09:49;22.20;47.40
27671;DHT22;15077;49.704;9.908;2022-08-03T06:12:15;22.30;47.60
27671;DHT22;15077;49.704;9.908;2022-08-03T06:14:41;22.40;47.80
27671;DHT22;15077;49.704;9.908;2022-08-03T06:17:06;22.40;47.70
27671;DHT22;15077;49.704;9.908;2022-08-03T06:19:32;22.50;48.00
27671;DHT22;15077;49.704;9.908;2022-08-03T06:21:58;22.50;47.80
27671;DHT22;15077;49.704;9.908;2022-08-03T06:24:24;22.60;48.10
27671;DHT22;15077;49.704;9.908;2022-08-03T06:26:49;22.70;48.30
27671;DHT22;15077;49.704;9.908;2022-08-03T06:29:15;22.80;48.10
27671;DHT22;15077;49.704;9.908;2022-08-03T06:31:41;22.80;47.80
27671;DHT22;15077;49.704;9.908;2022-08-03T06:34:07;22.90;47.90
27671;DHT22;15077;49.704;9.908;2022-08-03T06:36:32;23.00;47.90
27671;DHT22;15077;49.704;9.908;2022-08-03T06:38:58;23.10;48.10
27671;DHT22;15077;49.704;9.908;2022-08-03T06:41:25;23.10;47.80
27671;DHT22;15077;49.704;9.908;2022-08-03T06:43:52;23.20;47.90
27671;DHT22;15077;49.704;9.908;2022-08-03T06:46:18;23.20;48.00
27671;DHT22;15077;49.704;9.908;2022-08-03T06:48:44;23.30;47.70
27671;DHT22;15077;49.704;9.908;2022-08-03T06:51:11;23.40;47.60
27671;DHT22;15077;49.704;9.908;2022-08-03T06:53:37;23.40;47.40
27671;DHT22;15077;49.704;9.908;2022-08-03T06:56:06;23.50;47.30
27671;DHT22;15077;49.704;9.908;2022-08-03T06:58:33;23.50;47.30
27671;DHT22;15077;49.704;9.908;2022-08-03T07:00:59;23.60;47.60
27671;DHT22;15077;49.704;9.908;2022-08-03T07:03:25;23.70;47.80
27671;DHT22;15077;49.704;9.908;2022-08-03T07:05:51;23.70;47.60
27671;DHT22;15077;49.704;9.908;2022-08-03T07:08:17;23.80;47.70
27671;DHT22;15077;49.704;9.908;2022-08-03T07:10:44;23.90;47.40
27671;DHT22;15077;49.704;9.908;2022-08-03T07:13:10;24.00;47.60
27671;DHT22;15077;49.704;9.908;2022-08-03T07:15:36;24.10;47.50
27671;DHT22;15077;49.704;9.908;2022-08-03T07:18:02;24.10;47.60
27671;DHT22;15077;49.704;9.908;2022-08-03T07:20:28;24.20;47.40
27671;DHT22;15077;49.704;9.908;2022-08-03T07:22:54;24.30;47.40
27671;DHT22;15077;49.704;9.908;2022-08-03T07:25:20;24.40;47.50
27671;DHT22;15077;49.704;9.908;2022-08-03T07:27:47;24.50;47.30
27671;DHT22;15077;49.704;9.908;2022-08-03T07:30:14;24.60;47.30
27671;DHT22;15077;49.704;9.908;2022-08-03T07:32:41;24.70;47.30
27671;DHT22;15077;49.704;9.908;2022-08-03T07:35:08;24.80;47.20
27671;DHT22;15077;49.704;9.908;2022-08-03T07:37:35;24.90;47.30
27671;DHT22;15077;49.704;9.908;2022-08-03T07:40:03;25.00;47.10
27671;DHT22;15077;49.704;9.908;2022-08-03T07:42:31;25.10;47.10
27671;DHT22;15077;49.704;9.908;2022-08-03T07:44:57;25.20;46.90
27671;DHT22;15077;49.704;9.908;2022-08-03T07:47:25;25.30;46.90
27671;DHT22;15077;49.704;9.908;2022-08-03T07:49:53;25.40;46.80
27671;DHT22;15077;49.704;9.908;2022-08-03T07:52:20;25.50;46.50
27671;DHT22;15077;49.704;9.908;2022-08-03T07:55:05;25.60;46.50
27671;DHT22;15077;49.704;9.908;2022-08-03T07:57:32;25.70;46.30
27671;DHT22;15077;49.704;9.908;2022-08-03T07:59:58;25.80;46.30
27671;DHT22;15077;49.704;9.908;2022-08-03T08:02:24;25.90;46.10
27671;DHT22;15077;49.704;9.908;2022-08-03T08:04:50;26.00;46.20
27671;DHT22;15077;49.704;9.908;2022-08-03T08:07:16;26.10;46.10
27671;DHT22;15077;49.704;9.908;2022-08-03T08:09:42;26.20;46.00
27671;DHT22;15077;49.704;9.908;2022-08-03T08:12:08;26.30;45.80
27671;DHT22;15077;49.704;9.908;2022-08-03T08:14:35;26.40;45.50
27671;DHT22;15077;49.704;9.908;2022-08-03T08:17:01;26.50;45.50
27671;DHT22;15077;49.704;9.908;2022-08-03T08:19:27;26.60;45.40
27671;DHT22;15077;49.704;9.908;2022-08-03T08:21:53;26.70;45.40
27671;DHT22;15077;49.704;9.908;2022-08-03T08:24:18;26.80;45.10
27671;DHT22;15077;49.704;9.908;2022-08-03T08:26:44;26.90;45.00
27671;DHT22;15077;49.704;9.908;2022-08-03T08:29:11;27.10;44.90
27671;DHT22;15077;49.704;9.908;2022-08-03T08:31:37;27.20;44.80
27671;DHT22;15077;49.704;9.908;2022-08-03T08:34:02;27.30;44.70
27671;DHT22;15077;49.704;9.908;2022-08-03T08:36:33;27.40;44.40
27671;DHT22;15077;49.704;9.908;2022-08-03T08:39:00;27.50;44.40
27671;DHT22;15077;49.704;9.908;2022-08-03T08:41:26;27.70;44.40
27671;DHT22;15077;49.704;9.908;2022-08-03T08:43:53;27.80;44.40
27671;DHT22;15077;49.704;9.908;2022-08-03T08:46:20;27.90;43.90
27671;DHT22;15077;49.704;9.908;2022-08-03T08:48:47;28.00;43.80
27671;DHT22;15077;49.704;9.908;2022-08-03T08:51:15;28.10;43.90
27671;DHT22;15077;49.704;9.908;2022-08-03T08:53:46;28.30;43.80
27671;DHT22;15077;49.704;9.908;2022-08-03T08:56:16;28.40;43.80
27671;DHT22;15077;49.704;9.908;2022-08-03T08:58:48;28.50;43.60
27671;DHT22;15077;49.704;9.908;2022-08-03T09:01:20;28.70;43.60
27671;DHT22;15077;49.704;9.908;2022-08-03T09:03:46;28.80;44.30
27671;DHT22;15077;49.704;9.908;2022-08-03T09:06:12;28.90;43.60
27671;DHT22;15077;49.704;9.908;2022-08-03T09:08:39;29.10;43.40
27671;DHT22;15077;49.704;9.908;2022-08-03T09:11:05;29.20;43.30
27671;DHT22;15077;49.704;9.908;2022-08-03T09:13:33;29.40;43.20
27671;DHT22;15077;49.704;9.908;2022-08-03T09:16:11;29.50;43.00
27671;DHT22;15077;49.704;9.908;2022-08-03T09:18:47;29.70;42.90
27671;DHT22;15077;49.704;9.908;2022-08-03T09:21:27;29.90;43.00
27671;DHT22;15077;49.704;9.908;2022-08-03T09:23:55;30.00;42.70
27671;DHT22;15077;49.704;9.908;2022-08-03T09:26:27;30.20;42.60
27671;DHT22;15077;49.704;9.908;2022-08-03T09:29:12;30.40;42.70
27671;DHT22;15077;49.704;9.908;2022-08-03T09:31:44;30.60;42.60
27671;DHT22;15077;49.704;9.908;2022-08-03T09:34:15;30.70;41.90
27671;DHT22;15077;49.704;9.908;2022-08-03T09:36:48;30.90;41.40
27671;DHT22;15077;49.704;9.908;2022-08-03T09:39:22;31.00;40.80
27671;DHT22;15077;49.704;9.908;2022-08-03T09:42:12;31.10;40.40
27671;DHT22;15077;49.704;9.908;2022-08-03T09:44:45;31.30;39.70
27671;DHT22;15077;49.704;9.908;2022-08-03T09:47:13;31.30;39.50
27671;DHT22;15077;49.704;9.908;2022-08-03T09:49:42;31.40;40.00
27671;DHT22;15077;49.704;9.908;2022-08-03T09:52:30;31.60;40.10
27671;DHT22;15077;49.704;9.908;2022-08-03T09:55:01;31.70;40.30
27671;DHT22;15077;49.704;9.908;2022-08-03T09:57:32;31.80;40.50
27671;DHT22;15077;49.704;9.908;2022-08-03T10:00:07;32.00;40.10
27671;DHT22;15077;49.704;9.908;2022-08-03T10:02:36;32.10;39.50
27671;DHT22;15077;49.704;9.908;2022-08-03T10:05:03;32.20;39.90
27671;DHT22;15077;49.704;9.908;2022-08-03T10:07:29;32.40;39.40
27671;DHT22;15077;49.704;9.908;2022-08-03T10:10:07;32.50;39.20
27671;DHT22;15077;49.704;9.908;2022-08-03T10:12:36;32.70;39.40
27671;DHT22;15077;49.704;9.908;2022-08-03T10:15:04;32.70;39.00
27671;DHT22;15077;49.704;9.908;2022-08-03T10:17:30;32.90;39.50
27671;DHT22;15077;49.704;9.908;2022-08-03T10:19:56;33.00;39.30
27671;DHT22;15077;49.704;9.908;2022-08-03T10:22:31;33.20;39.10
27671;DHT22;15077;49.704;9.908;2022-08-03T10:25:03;33.30;39.00
27671;DHT22;15077;49.704;9.908;2022-08-03T10:27:42;33.40;39.30
27671;DHT22;15077;49.704;9.908;2022-08-03T10:30:12;33.60;38.70
27671;DHT22;15077;49.704;9.908;2022-08-03T10:32:55;33.80;39.10
27671;DHT22;15077;49.704;9.908;2022-08-03T10:35:31;34.00;37.80
27671;DHT22;15077;49.704;9.908;2022-08-03T10:38:03;34.10;38.10
27671;DHT22;15077;49.704;9.908;2022-08-03T10:40:34;34.20;38.10
27671;DHT22;15077;49.704;9.908;2022-08-03T10:43:25;34.30;37.60
27671;DHT22;15077;49.704;9.908;2022-08-03T10:45:56;34.50;37.90
27671;DHT22;15077;49.704;9.908;2022-08-03T10:48:23;34.60;37.70
27671;DHT22;15077;49.704;9.908;2022-08-03T10:50:51;34.70;37.60
27671;DHT22;15077;49.704;9.908;2022-08-03T10:53:34;34.80;37.60
27671;DHT22;15077;49.704;9.908;2022-08-03T10:59:18;35.10;35.80
27671;DHT22;15077;49.704;9.908;2022-08-03T11:01:52;35.10;35.30
27671;DHT22;15077;49.704;9.908;2022-08-03T11:04:20;35.20;35.40
27671;DHT22;15077;49.704;9.908;2022-08-03T11:14:48;35.40;36.00
27671;DHT22;15077;49.704;9.908;2022-08-03T11:17:15;35.40;36.10
27671;DHT22;15077;49.704;9.908;2022-08-03T11:19:46;35.50;35.80
27671;DHT22;15077;49.704;9.908;2022-08-03T11:22:14;35.60;35.70
27671;DHT22;15077;49.704;9.908;2022-08-03T11:27:15;35.80;35.50
27671;DHT22;15077;49.704;9.908;2022-08-03T11:46:02;36.20;34.30
27671;DHT22;15077;49.704;9.908;2022-08-03T11:48:36;36.20;34.20
27671;DHT22;15077;49.704;9.908;2022-08-03T11:51:06;36.30;34.50
27671;DHT22;15077;49.704;9.908;2022-08-03T11:53:43;36.40;34.10
27671;DHT22;15077;49.704;9.908;2022-08-03T11:56:09;36.40;34.20
27671;DHT22;15077;49.704;9.908;2022-08-03T11:58:34;36.50;34.00
27671;DHT22;15077;49.704;9.908;2022-08-03T12:01:04;36.60;33.40
27671;DHT22;15077;49.704;9.908;2022-08-03T12:03:32;36.60;33.60
27671;DHT22;15077;49.704;9.908;2022-08-03T12:05:59;36.60;33.80
27671;DHT22;15077;49.704;9.908;2022-08-03T12:08:33;36.70;33.60
27671;DHT22;15077;49.704;9.908;2022-08-03T12:11:03;36.70;33.70
27671;DHT22;15077;49.704;9.908;2022-08-03T12:13:47;36.80;33.50
27671;DHT22;15077;49.704;9.908;2022-08-03T12:16:25;36.90;33.60
27671;DHT22;15077;49.704;9.908;2022-08-03T12:19:03;36.90;33.10
27671;DHT22;15077;49.704;9.908;2022-08-03T12:21:31;37.00;32.80
27671;DHT22;15077;49.704;9.908;2022-08-03T12:24:02;37.10;33.40
27671;DHT22;15077;49.704;9.908;2022-08-03T12:26:45;37.10;33.10
27671;DHT22;15077;49.704;9.908;2022-08-03T12:29:19;37.10;33.10
27671;DHT22;15077;49.704;9.908;2022-08-03T12:31:45;37.30;33.40
27671;DHT22;15077;49.704;9.908;2022-08-03T12:34:12;37.30;33.40
27671;DHT22;15077;49.704;9.908;2022-08-03T12:36:53;37.40;33.40
27671;DHT22;15077;49.704;9.908;2022-08-03T12:39:25;37.50;32.90
27671;DHT22;15077;49.704;9.908;2022-08-03T12:41:55;37.50;32.70
27671;DHT22;15077;49.704;9.908;2022-08-03T12:44:32;37.60;32.50
27671;DHT22;15077;49.704;9.908;2022-08-03T12:47:03;37.60;32.10
27671;DHT22;15077;49.704;9.908;2022-08-03T12:49:44;37.60;32.40
27671;DHT22;15077;49.704;9.908;2022-08-03T12:52:10;37.70;32.50
27671;DHT22;15077;49.704;9.908;2022-08-03T12:54:37;37.70;31.90
27671;DHT22;15077;49.704;9.908;2022-08-03T12:57:08;37.80;32.00
27671;DHT22;15077;49.704;9.908;2022-08-03T12:59:40;37.80;31.90
27671;DHT22;15077;49.704;9.908;2022-08-03T13:02:17;37.90;31.90
27671;DHT22;15077;49.704;9.908;2022-08-03T13:04:45;37.90;32.10
27671;DHT22;15077;49.704;9.908;2022-08-03T13:07:14;38.00;32.00
27671;DHT22;15077;49.704;9.908;2022-08-03T13:09:42;38.00;32.10
27671;DHT22;15077;49.704;9.908;2022-08-03T13:12:23;38.10;32.10
27671;DHT22;15077;49.704;9.908;2022-08-03T13:14:58;38.20;31.80
27671;DHT22;15077;49.704;9.908;2022-08-03T13:17:25;38.20;31.50
27671;DHT22;15077;49.704;9.908;2022-08-03T13:19:52;38.30;31.60
27671;DHT22;15077;49.704;9.908;2022-08-03T13:22:23;38.30;31.50
27671;DHT22;15077;49.704;9.908;2022-08-03T13:24:53;38.30;31.20
27671;DHT22;15077;49.704;9.908;2022-08-03T13:27:23;38.30;31.00
27671;DHT22;15077;49.704;9.908;2022-08-03T13:29:49;38.30;30.80
27671;DHT22;15077;49.704;9.908;2022-08-03T13:32:16;38.40;31.40
27671;DHT22;15077;49.704;9.908;2022-08-03T13:34:42;38.40;30.90
27671;DHT22;15077;49.704;9.908;2022-08-03T13:37:08;38.40;30.70
27671;DHT22;15077;49.704;9.908;2022-08-03T13:39:34;38.40;31.40
27671;DHT22;15077;49.704;9.908;2022-08-03T13:41:59;38.40;30.80
27671;DHT22;15077;49.704;9.908;2022-08-03T13:44:25;38.50;31.00
27671;DHT22;15077;49.704;9.908;2022-08-03T13:46:51;38.50;31.10
27671;DHT22;15077;49.704;9.908;2022-08-03T13:49:17;38.60;31.00
27671;DHT22;15077;49.704;9.908;2022-08-03T13:51:43;38.60;31.20
27671;DHT22;15077;49.704;9.908;2022-08-03T13:54:09;38.70;31.10
27671;DHT22;15077;49.704;9.908;2022-08-03T13:56:35;38.80;30.70
27671;DHT22;15077;49.704;9.908;2022-08-03T13:59:01;38.80;30.50
27671;DHT22;15077;49.704;9.908;2022-08-03T14:01:26;38.80;30.50
27671;DHT22;15077;49.704;9.908;2022-08-03T14:03:52;38.80;29.90
27671;DHT22;15077;49.704;9.908;2022-08-03T14:06:22;38.80;30.10
27671;DHT22;15077;49.704;9.908;2022-08-03T14:08:49;38.80;30.00
27671;DHT22;15077;49.704;9.908;2022-08-03T14:11:16;38.80;30.10
27671;DHT22;15077;49.704;9.908;2022-08-03T14:13:43;38.80;29.90
27671;DHT22;15077;49.704;9.908;2022-08-03T14:16:10;38.80;30.10
27671;DHT22;15077;49.704;9.908;2022-08-03T14:18:36;38.80;30.10
27671;DHT22;15077;49.704;9.908;2022-08-03T14:21:03;38.80;30.00
27671;DHT22;15077;49.704;9.908;2022-08-03T14:23:30;38.90;30.00
27671;DHT22;15077;49.704;9.908;2022-08-03T14:25:56;38.90;29.90
27671;DHT22;15077;49.704;9.908;2022-08-03T14:28:23;38.90;30.00
27671;DHT22;15077;49.704;9.908;2022-08-03T14:30:52;39.00;30.00
27671;DHT22;15077;49.704;9.908;2022-08-03T14:33:20;39.00;29.90
27671;DHT22;15077;49.704;9.908;2022-08-03T14:35:47;39.10;29.60
27671;DHT22;15077;49.704;9.908;2022-08-03T14:38:13;39.10;29.40
27671;DHT22;15077;49.704;9.908;2022-08-03T14:40:39;39.10;29.60
27671;DHT22;15077;49.704;9.908;2022-08-03T14:43:05;39.10;29.60
27671;DHT22;15077;49.704;9.908;2022-08-03T14:45:31;39.20;29.80
27671;DHT22;15077;49.704;9.908;2022-08-03T14:47:58;39.20;29.80
27671;DHT22;15077;49.704;9.908;2022-08-03T14:50:25;39.20;29.70
27671;DHT22;15077;49.704;9.908;2022-08-03T14:52:53;39.30;29.50
27671;DHT22;15077;49.704;9.908;2022-08-03T14:55:19;39.30;29.70
27671;DHT22;15077;49.704;9.908;2022-08-03T14:57:45;39.40;29.30
27671;DHT22;15077;49.704;9.908;2022-08-03T15:00:11;39.40;29.40
27671;DHT22;15077;49.704;9.908;2022-08-03T15:02:37;39.40;29.40
27671;DHT22;15077;49.704;9.908;2022-08-03T15:05:03;39.50;29.30
27671;DHT22;15077;49.704;9.908;2022-08-03T15:07:29;39.50;29.50
27671;DHT22;15077;49.704;9.908;2022-08-03T15:09:55;39.50;29.40
27671;DHT22;15077;49.704;9.908;2022-08-03T15:12:21;39.50;29.40
27671;DHT22;15077;49.704;9.908;2022-08-03T15:14:47;39.60;28.70
27671;DHT22;15077;49.704;9.908;2022-08-03T15:17:12;39.50;28.60
27671;DHT22;15077;49.704;9.908;2022-08-03T15:19:38;39.50;28.70
27671;DHT22;15077;49.704;9.908;2022-08-03T15:22:05;39.50;28.90
27671;DHT22;15077;49.704;9.908;2022-08-03T15:24:31;39.40;28.90
27671;DHT22;15077;49.704;9.908;2022-08-03T15:26:57;39.40;28.70
27671;DHT22;15077;49.704;9.908;2022-08-03T15:29:23;39.40;29.30
27671;DHT22;15077;49.704;9.908;2022-08-03T15:31:49;39.40;28.50
27671;DHT22;15077;49.704;9.908;2022-08-03T15:34:15;39.40;28.60
27671;DHT22;15077;49.704;9.908;2022-08-03T15:36:40;39.40;28.50
27671;DHT22;15077;49.704;9.908;2022-08-03T15:39:07;39.40;28.40
27671;DHT22;15077;49.704;9.908;2022-08-03T15:41:33;39.40;28.40
27671;DHT22;15077;49.704;9.908;2022-08-03T15:44:00;39.40;28.40
27671;DHT22;15077;49.704;9.908;2022-08-03T15:46:26;39.40;28.40
27671;DHT22;15077;49.704;9.908;2022-08-03T15:48:52;39.40;28.20
27671;DHT22;15077;49.704;9.908;2022-08-03T15:51:18;39.40;28.10
27671;DHT22;15077;49.704;9.908;2022-08-03T15:53:44;39.30;28.20
27671;DHT22;15077;49.704;9.908;2022-08-03T15:56:10;39.30;28.10
27671;DHT22;15077;49.704;9.908;2022-08-03T15:58:37;39.30;28.20
27671;DHT22;15077;49.704;9.908;2022-08-03T16:01:05;39.30;28.10
27671;DHT22;15077;49.704;9.908;2022-08-03T16:03:32;39.20;28.10
27671;DHT22;15077;49.704;9.908;2022-08-03T16:06:05;39.20;28.20
27671;DHT22;15077;49.704;9.908;2022-08-03T16:08:32;39.20;28.20
27671;DHT22;15077;49.704;9.908;2022-08-03T16:10:59;39.20;28.20
27671;DHT22;15077;49.704;9.908;2022-08-03T16:13:26;39.30;28.40
27671;DHT22;15077;49.704;9.908;2022-08-03T16:15:52;39.30;28.40
27671;DHT22;15077;49.704;9.908;2022-08-03T16:18:19;39.20;28.40